createdAt,value
2018-08-16T00:00:56.464Z,88.10
2018-08-16T00:03:26.410Z,88.00
2018-08-16T00:05:59.599Z,87.60
2018-08-16T00:08:28.098Z,88.10
2018-08-16T00:10:57.181Z,87.50
2018-08-16T00:13:25.840Z,87.60
2018-08-16T00:15:54.292Z,88.10
2018-08-16T00:18:22.830Z,87.60
2018-08-16T00:20:51.278Z,88.00
2018-08-16T00:23:19.714Z,88.60
2018-08-16T00:28:24.705Z,89.10
2018-08-16T00:30:53.117Z,89.70
2018-08-16T00:33:21.557Z,90.00
2018-08-16T00:35:50.466Z,89.80
2018-08-16T00:38:18.869Z,89.90
2018-08-16T00:40:47.286Z,89.10
2018-08-16T00:43:15.797Z,88.90
2018-08-16T00:45:44.228Z,89.30
2018-08-16T00:48:13.610Z,89.30
2018-08-16T00:50:42.109Z,89.50
2018-08-16T00:53:11.146Z,89.60
2018-08-16T00:55:39.597Z,89.60
2018-08-16T00:58:08.047Z,90.00
2018-08-16T01:00:36.827Z,90.00
2018-08-16T01:03:05.640Z,90.30
2018-08-16T01:05:34.165Z,90.40
2018-08-16T01:08:02.661Z,90.40
2018-08-16T01:10:31.430Z,90.20
2018-08-16T01:13:00.352Z,90.50
2018-08-16T01:15:28.813Z,90.50
2018-08-16T01:17:57.285Z,90.60
2018-08-16T01:20:30.519Z,90.80
2018-08-16T01:22:59.032Z,90.70
2018-08-16T01:25:27.501Z,90.80
2018-08-16T01:27:55.944Z,90.90
2018-08-16T01:30:24.872Z,90.80
2018-08-16T01:32:53.888Z,90.90
2018-08-16T01:35:22.294Z,91.00
2018-08-16T01:40:27.579Z,91.00
2018-08-16T01:42:56.287Z,91.30
2018-08-16T01:45:24.730Z,91.50
2018-08-16T01:47:53.151Z,91.30
2018-08-16T01:50:21.722Z,91.40
2018-08-16T01:52:51.008Z,91.20
2018-08-16T01:55:19.453Z,91.00
2018-08-16T01:57:47.934Z,91.00
2018-08-16T02:00:16.477Z,91.20
2018-08-16T02:02:44.921Z,91.10
2018-08-16T02:05:13.476Z,91.30
2018-08-16T02:07:42.135Z,91.30
2018-08-16T02:10:10.852Z,91.20
2018-08-16T02:12:39.291Z,91.00
2018-08-16T02:15:10.166Z,90.70
2018-08-16T02:17:38.584Z,90.80
2018-08-16T02:20:08.712Z,91.20
2018-08-16T02:22:37.231Z,91.20
2018-08-16T02:25:05.716Z,91.00
2018-08-16T02:27:39.021Z,91.00
2018-08-16T02:30:08.511Z,91.10
2018-08-16T02:32:37.766Z,91.10
2018-08-16T02:35:06.314Z,91.10
2018-08-16T02:37:34.785Z,91.40
2018-08-16T02:40:03.723Z,91.40
2018-08-16T02:42:32.989Z,91.60
2018-08-16T02:45:01.879Z,91.50
2018-08-16T02:47:30.344Z,91.30
2018-08-16T02:49:58.793Z,91.50
2018-08-16T02:52:27.461Z,91.40
2018-08-16T02:54:55.898Z,91.30
2018-08-16T02:57:24.364Z,91.40
2018-08-16T02:59:52.776Z,91.60
2018-08-16T03:02:21.324Z,91.60
2018-08-16T03:04:49.750Z,91.70
2018-08-16T03:07:18.161Z,91.80
2018-08-16T03:09:46.598Z,91.90
2018-08-16T03:12:15.175Z,91.90
2018-08-16T03:14:48.339Z,91.90
2018-08-16T03:17:16.804Z,92.00
2018-08-16T03:19:45.232Z,91.80
2018-08-16T03:22:13.689Z,91.70
2018-08-16T03:24:42.153Z,91.70
2018-08-16T03:27:10.852Z,92.10
2018-08-16T03:29:40.079Z,92.50
2018-08-16T03:32:08.549Z,92.50
2018-08-16T03:34:37.325Z,92.90
2018-08-16T03:37:05.837Z,92.70
2018-08-16T03:39:34.761Z,92.90
2018-08-16T03:42:03.319Z,92.80
2018-08-16T03:44:32.328Z,92.70
2018-08-16T03:47:00.780Z,92.60
2018-08-16T03:49:30.155Z,92.60
2018-08-16T03:51:58.668Z,92.70
2018-08-16T03:54:27.154Z,93.00
2018-08-16T03:56:55.701Z,92.90
2018-08-16T03:59:24.155Z,93.00
2018-08-16T04:01:52.746Z,93.00
2018-08-16T04:04:21.249Z,93.00
2018-08-16T04:06:49.694Z,93.10
2018-08-16T04:09:18.132Z,93.00
2018-08-16T04:11:46.561Z,92.70
2018-08-16T04:14:15.407Z,92.80
2018-08-16T04:16:43.865Z,92.50
2018-08-16T04:19:12.444Z,92.60
2018-08-16T04:21:45.438Z,92.60
2018-08-16T04:24:14.159Z,92.60
2018-08-16T04:26:42.657Z,92.80
2018-08-16T04:29:11.093Z,92.70
2018-08-16T04:31:39.497Z,92.70
2018-08-16T04:34:08.468Z,92.60
2018-08-16T04:36:37.416Z,92.60
2018-08-16T04:39:08.435Z,92.50
2018-08-16T04:41:37.428Z,92.50
2018-08-16T04:44:07.449Z,92.40
2018-08-16T04:46:36.154Z,92.50
2018-08-16T04:49:04.946Z,92.60
2018-08-16T04:51:33.972Z,92.60
2018-08-16T04:54:02.393Z,92.80
2018-08-16T04:56:32.114Z,92.90
2018-08-16T04:59:02.230Z,92.80
2018-08-16T05:01:30.689Z,92.40
2018-08-16T05:04:03.221Z,92.10
2018-08-16T05:06:32.976Z,92.30
2018-08-16T05:09:02.740Z,92.20
2018-08-16T05:11:31.169Z,91.70
2018-08-16T05:13:59.639Z,91.90
2018-08-16T05:16:28.154Z,91.80
2018-08-16T05:18:56.694Z,91.90
2018-08-16T05:21:25.272Z,91.80
2018-08-16T05:23:54.297Z,92.00
2018-08-16T05:26:23.502Z,92.00
2018-08-16T05:28:52.605Z,92.00
2018-08-16T05:31:21.653Z,91.80
2018-08-16T05:33:50.686Z,91.60
2018-08-16T05:36:19.734Z,91.10
2018-08-16T05:38:48.193Z,91.20
2018-08-16T05:41:16.921Z,91.20
2018-08-16T05:43:49.853Z,90.60
2018-08-16T05:46:18.313Z,90.60
2018-08-16T05:48:47.111Z,90.20
2018-08-16T05:51:15.580Z,90.30
2018-08-16T05:53:44.089Z,89.90
2018-08-16T05:56:12.716Z,89.90
2018-08-16T05:58:45.228Z,89.90
2018-08-16T06:01:13.696Z,88.20
2018-08-16T06:03:42.142Z,89.00
2018-08-16T06:06:11.585Z,89.20
2018-08-16T06:08:40.317Z,88.70
2018-08-16T06:11:08.807Z,87.70
2018-08-16T06:13:37.245Z,88.30
2018-08-16T06:16:06.706Z,87.60
2018-08-16T06:18:35.822Z,88.40
2018-08-16T06:21:04.981Z,87.40
2018-08-16T06:23:38.556Z,87.10
2018-08-16T06:28:40.208Z,87.50
2018-08-16T06:31:13.189Z,87.70
2018-08-16T06:33:42.347Z,86.30
2018-08-16T06:36:10.857Z,86.50
2018-08-16T06:38:39.336Z,86.00
2018-08-16T06:41:08.453Z,86.50
2018-08-16T06:43:37.219Z,85.60
2018-08-16T06:46:06.198Z,86.60
2018-08-16T06:48:35.342Z,84.70
2018-08-16T06:51:03.921Z,84.80
2018-08-16T06:53:32.380Z,84.90
2018-08-16T06:56:01.804Z,84.60
2018-08-16T06:58:34.694Z,85.20
2018-08-16T07:01:03.264Z,83.30
2018-08-16T07:03:31.710Z,83.70
2018-08-16T07:06:00.161Z,84.20
2018-08-16T07:08:28.616Z,82.30
2018-08-16T07:10:57.068Z,84.00
2018-08-16T07:13:26.723Z,81.90
2018-08-16T07:15:55.217Z,82.20
2018-08-16T07:18:26.564Z,82.20
2018-08-16T07:20:55.091Z,81.70
2018-08-16T07:23:23.990Z,78.10
2018-08-16T07:25:53.148Z,79.10
2018-08-16T07:28:22.243Z,77.00
2018-08-16T07:30:51.300Z,76.20
2018-08-16T07:33:19.972Z,74.20
2018-08-16T07:35:48.509Z,75.20
2018-08-16T07:38:16.933Z,75.00
2018-08-16T07:40:45.438Z,72.60
2018-08-16T07:43:13.976Z,71.90
2018-08-16T07:45:42.519Z,72.90
2018-08-16T07:48:11.593Z,73.10
2018-08-16T07:50:40.149Z,70.20
2018-08-16T07:53:08.670Z,70.10
2018-08-16T07:55:37.400Z,70.20
2018-08-16T07:58:06.248Z,69.70
2018-08-16T08:00:34.687Z,69.60
2018-08-16T08:03:03.332Z,69.50
2018-08-16T08:05:31.954Z,68.00
2018-08-16T08:08:00.377Z,68.90
2018-08-16T08:10:28.896Z,69.40
2018-08-16T08:12:57.436Z,65.70
2018-08-16T08:15:26.004Z,66.10
2018-08-16T08:17:54.437Z,64.40
2018-08-16T08:20:22.997Z,62.90
2018-08-16T08:22:51.404Z,62.30
2018-08-16T08:25:20.085Z,62.90
2018-08-16T08:27:49.172Z,63.50
2018-08-16T08:30:17.684Z,61.00
2018-08-16T08:32:46.440Z,61.30
2018-08-16T08:35:15.685Z,60.20
2018-08-16T08:37:55.491Z,61.30
2018-08-16T08:40:23.976Z,61.30
2018-08-16T08:42:52.450Z,60.40
2018-08-16T08:45:20.841Z,59.70
2018-08-16T08:47:53.585Z,60.00
2018-08-16T08:50:22.094Z,57.30
2018-08-16T08:52:50.568Z,58.20
2018-08-16T08:55:30.221Z,59.60
2018-08-16T08:58:09.939Z,58.50
2018-08-16T09:00:39.170Z,57.00
2018-08-16T09:03:07.713Z,55.40
2018-08-16T09:05:36.577Z,56.50
2018-08-16T09:08:05.381Z,54.70
2018-08-16T09:10:54.598Z,55.70
2018-08-16T09:13:35.348Z,55.90
2018-08-16T09:16:10.226Z,55.30
2018-08-16T09:18:38.678Z,54.60
2018-08-16T09:21:08.536Z,54.30
2018-08-16T09:23:37.354Z,53.20
2018-08-16T09:26:11.357Z,51.90
2018-08-16T09:28:39.881Z,51.70
2018-08-16T09:31:20.200Z,55.10
2018-08-16T09:34:00.001Z,49.20
2018-08-16T09:36:28.458Z,51.80
2018-08-16T09:38:57.761Z,50.60
2018-08-16T09:41:26.451Z,50.40
2018-08-16T09:43:54.908Z,49.70
2018-08-16T09:46:46.869Z,48.70
2018-08-16T09:49:15.758Z,47.00
2018-08-16T09:51:45.848Z,45.10
2018-08-16T09:54:14.324Z,45.20
2018-08-16T09:56:43.868Z,47.20
2018-08-16T09:59:16.522Z,48.20
2018-08-16T10:01:45.101Z,48.70
2018-08-16T10:04:14.263Z,49.60
2018-08-16T10:06:49.562Z,50.70
2018-08-16T10:09:23.955Z,49.20
2018-08-16T10:11:52.632Z,45.40
2018-08-16T10:14:21.533Z,45.80
2018-08-16T10:16:50.169Z,45.30
2018-08-16T10:19:19.424Z,44.60
2018-08-16T10:21:48.782Z,45.10
2018-08-16T10:24:17.297Z,45.40
2018-08-16T10:26:46.174Z,45.10
2018-08-16T10:29:14.895Z,46.10
2018-08-16T10:31:43.436Z,47.10
2018-08-16T10:34:12.153Z,46.50
2018-08-16T10:36:40.854Z,45.50
2018-08-16T10:39:11.673Z,46.30
2018-08-16T10:41:40.880Z,46.20
2018-08-16T10:44:09.467Z,43.70
2018-08-16T10:46:44.838Z,44.60
2018-08-16T10:49:13.501Z,44.20
2018-08-16T10:51:41.968Z,43.40
2018-08-16T10:54:10.756Z,43.40
2018-08-16T10:56:39.225Z,43.30
2018-08-16T10:59:07.948Z,44.30
2018-08-16T11:01:36.532Z,45.40
2018-08-16T11:04:04.992Z,47.10
2018-08-16T11:06:33.443Z,45.20
2018-08-16T11:09:01.905Z,45.70
2018-08-16T11:11:30.456Z,44.10
2018-08-16T11:13:59.040Z,44.20
2018-08-16T11:16:27.497Z,44.90
2018-08-16T11:18:56.001Z,44.70
2018-08-16T11:21:25.001Z,45.00
2018-08-16T11:23:53.713Z,44.40
2018-08-16T11:26:22.249Z,45.00
2018-08-16T11:28:50.648Z,45.50
2018-08-16T11:31:19.065Z,43.00
2018-08-16T11:33:47.613Z,44.60
2018-08-16T11:36:16.584Z,43.00
2018-08-16T11:38:46.776Z,42.90
2018-08-16T11:41:15.277Z,43.70
2018-08-16T11:43:44.610Z,45.60
2018-08-16T11:46:13.197Z,45.60
2018-08-16T11:48:41.641Z,45.00
2018-08-16T11:51:10.195Z,45.80
2018-08-16T11:53:39.513Z,44.10
2018-08-16T11:56:08.051Z,46.60
2018-08-16T11:58:36.560Z,43.60
2018-08-16T12:01:05.010Z,43.90
2018-08-16T12:03:34.072Z,46.20
2018-08-16T12:06:02.588Z,47.00
2018-08-16T12:08:31.054Z,44.20
2018-08-16T12:11:00.248Z,45.50
2018-08-16T12:13:29.510Z,44.90
2018-08-16T12:15:58.040Z,45.50
2018-08-16T12:18:26.747Z,45.00
2018-08-16T12:20:55.224Z,45.00
2018-08-16T12:23:23.666Z,47.30
2018-08-16T12:25:52.216Z,46.40
2018-08-16T12:28:21.209Z,47.70
2018-08-16T12:30:49.778Z,46.10
2018-08-16T12:33:18.405Z,47.30
2018-08-16T12:35:46.961Z,46.90
2018-08-16T12:38:15.494Z,47.00
2018-08-16T12:40:44.262Z,47.90
2018-08-16T12:43:13.162Z,46.70
2018-08-16T12:45:41.695Z,46.10
2018-08-16T12:48:11.253Z,46.10
2018-08-16T12:50:40.178Z,47.00
2018-08-16T12:53:09.986Z,48.80
2018-08-16T12:55:38.561Z,47.70
2018-08-16T12:58:07.027Z,47.60
2018-08-16T13:00:35.500Z,46.20
2018-08-16T13:03:04.754Z,48.00
2018-08-16T13:05:33.438Z,47.30
2018-08-16T13:08:02.797Z,47.10
2018-08-16T13:10:31.321Z,47.20
2018-08-16T13:12:59.858Z,48.30
2018-08-16T13:15:28.458Z,46.70
2018-08-16T13:17:57.034Z,46.50
2018-08-16T13:20:26.468Z,48.60
2018-08-16T13:22:54.884Z,48.50
2018-08-16T13:25:23.529Z,49.60
2018-08-16T13:27:52.178Z,47.80
2018-08-16T13:30:21.185Z,47.00
2018-08-16T13:32:49.727Z,47.80
2018-08-16T13:35:18.135Z,49.50
2018-08-16T13:37:46.879Z,46.40
2018-08-16T13:40:16.152Z,46.90
2018-08-16T13:42:44.693Z,46.60
2018-08-16T13:45:13.268Z,47.50
2018-08-16T13:47:48.535Z,46.70
2018-08-16T13:50:17.048Z,46.50
2018-08-16T13:52:45.689Z,46.10
2018-08-16T13:55:20.930Z,46.30
2018-08-16T13:57:50.104Z,45.50
2018-08-16T14:00:18.601Z,44.80
2018-08-16T14:02:47.216Z,44.30
2018-08-16T14:05:16.225Z,45.00
2018-08-16T14:07:45.077Z,43.70
2018-08-16T14:10:13.593Z,44.30
2018-08-16T14:12:42.697Z,44.70
2018-08-16T14:15:12.187Z,45.70
2018-08-16T14:17:40.871Z,45.20
2018-08-16T14:20:10.280Z,45.10
2018-08-16T14:22:38.885Z,44.90
2018-08-16T14:25:07.445Z,45.00
2018-08-16T14:27:35.917Z,44.70
2018-08-16T14:30:05.589Z,43.90
2018-08-16T14:32:34.267Z,45.70
2018-08-16T14:35:03.288Z,43.80
2018-08-16T14:37:31.982Z,45.30
2018-08-16T14:40:00.597Z,42.50
2018-08-16T14:42:29.221Z,43.60
2018-08-16T14:44:57.738Z,44.10
2018-08-16T14:47:26.996Z,44.60
2018-08-16T14:49:55.516Z,44.70
2018-08-16T14:52:23.937Z,43.80
2018-08-16T14:54:52.373Z,44.40
2018-08-16T14:57:21.571Z,44.30
2018-08-16T14:59:54.364Z,43.20
2018-08-16T15:02:22.853Z,44.10
2018-08-16T15:04:51.285Z,43.50
2018-08-16T15:07:19.886Z,43.60
2018-08-16T15:09:48.365Z,43.90
2018-08-16T15:12:16.792Z,42.70
2018-08-16T15:14:45.861Z,42.50
2018-08-16T15:17:14.431Z,43.20
2018-08-16T15:19:43.762Z,42.80
2018-08-16T15:22:16.471Z,42.10
2018-08-16T15:24:45.067Z,43.70
2018-08-16T15:27:13.521Z,44.00
2018-08-16T15:29:46.354Z,43.60
2018-08-16T15:32:14.857Z,44.10
2018-08-16T15:34:43.318Z,44.10
2018-08-16T15:37:11.761Z,44.00
2018-08-16T15:39:40.967Z,42.90
2018-08-16T15:42:09.419Z,45.30
2018-08-16T15:44:38.853Z,45.70
2018-08-16T15:47:07.341Z,45.80
2018-08-16T15:49:35.789Z,44.80
2018-08-16T15:52:04.526Z,45.00
2018-08-16T15:54:33.029Z,45.40
2018-08-16T15:57:01.482Z,44.90
2018-08-16T15:59:30.553Z,45.70
2018-08-16T16:01:59.799Z,45.20
2018-08-16T16:04:29.272Z,46.20
2018-08-16T16:06:57.778Z,45.50
2018-08-16T16:09:29.578Z,46.00
2018-08-16T16:11:58.203Z,45.80
2018-08-16T16:14:27.244Z,47.50
2018-08-16T16:16:55.924Z,46.70
2018-08-16T16:19:24.468Z,47.40
2018-08-16T16:21:57.589Z,47.60
2018-08-16T16:24:26.100Z,45.60
2018-08-16T16:26:54.910Z,46.00
2018-08-16T16:29:23.726Z,46.70
2018-08-16T16:31:52.156Z,47.10
2018-08-16T16:34:20.577Z,48.30
2018-08-16T16:36:49.213Z,49.40
2018-08-16T16:39:17.672Z,48.20
2018-08-16T16:41:46.228Z,49.00
2018-08-16T16:44:15.296Z,49.20
2018-08-16T16:46:47.968Z,48.60
2018-08-16T16:49:20.647Z,46.80
2018-08-16T16:51:49.097Z,47.50
2018-08-16T16:54:17.816Z,47.30
2018-08-16T16:56:47.005Z,47.40
2018-08-16T16:59:15.882Z,46.90
2018-08-16T17:01:44.422Z,47.10
2018-08-16T17:04:13.121Z,47.90
2018-08-16T17:06:41.521Z,47.60
2018-08-16T17:09:11.495Z,49.50
2018-08-16T17:11:40.393Z,48.00
2018-08-16T17:14:10.385Z,48.30
2018-08-16T17:16:39.134Z,49.40
2018-08-16T17:19:07.712Z,49.00
2018-08-16T17:21:40.217Z,49.70
2018-08-16T17:24:08.753Z,48.10
2018-08-16T17:26:37.286Z,50.00
2018-08-16T17:29:05.765Z,52.30
2018-08-16T17:31:35.578Z,51.50
2018-08-16T17:34:04.067Z,51.60
2018-08-16T17:36:33.004Z,49.80
2018-08-16T17:39:01.476Z,49.40
2018-08-16T17:41:29.964Z,52.50
2018-08-16T17:43:59.211Z,52.30
2018-08-16T17:46:32.292Z,52.20
2018-08-16T17:49:01.145Z,52.90
2018-08-16T17:51:30.162Z,52.90
2018-08-16T17:53:58.580Z,53.80
2018-08-16T17:56:27.165Z,51.50
2018-08-16T17:58:55.597Z,54.40
2018-08-16T18:01:24.452Z,56.50
2018-08-16T18:03:52.951Z,55.30
2018-08-16T18:06:22.026Z,56.90
2018-08-16T18:08:50.494Z,57.80
2018-08-16T18:11:19.816Z,58.50
2018-08-16T18:13:48.258Z,58.80
2018-08-16T18:16:17.729Z,60.30
2018-08-16T18:18:46.539Z,58.40
2018-08-16T18:21:15.528Z,60.00
2018-08-16T18:23:44.010Z,59.60
2018-08-16T18:26:13.057Z,60.60
2018-08-16T18:28:41.924Z,62.00
2018-08-16T18:31:10.425Z,64.10
2018-08-16T18:33:38.896Z,62.90
2018-08-16T18:36:07.500Z,63.50
2018-08-16T18:38:36.583Z,64.30
2018-08-16T18:41:05.126Z,64.40
2018-08-16T18:43:33.601Z,65.30
2018-08-16T18:46:07.206Z,64.80
2018-08-16T18:48:35.681Z,65.30
2018-08-16T18:51:04.170Z,65.40
2018-08-16T18:53:33.318Z,65.40
2018-08-16T18:56:02.062Z,66.70
2018-08-16T18:58:30.513Z,66.00
2018-08-16T19:00:59.081Z,67.60
2018-08-16T19:03:28.349Z,69.20
2018-08-16T19:05:56.770Z,70.10
2018-08-16T19:08:27.409Z,70.90
2018-08-16T19:10:56.518Z,72.20
2018-08-16T19:13:25.796Z,69.70
2018-08-16T19:15:54.257Z,68.60
2018-08-16T19:18:22.724Z,69.10
2018-08-16T19:20:51.628Z,69.00
2018-08-16T19:23:27.260Z,69.70
2018-08-16T19:25:56.097Z,71.00
2018-08-16T19:28:24.613Z,70.40
2018-08-16T19:30:53.161Z,68.80
2018-08-16T19:33:22.009Z,70.60
2018-08-16T19:35:50.574Z,69.80
2018-08-16T19:38:20.870Z,70.50
2018-08-16T19:40:49.411Z,70.50
2018-08-16T19:43:17.984Z,70.10
2018-08-16T19:45:46.958Z,68.30
2018-08-16T19:48:15.467Z,67.60
2018-08-16T19:50:43.896Z,67.70
2018-08-16T19:53:12.368Z,68.30
2018-08-16T19:55:40.828Z,70.10
2018-08-16T19:58:10.786Z,71.00
2018-08-16T20:00:39.283Z,71.50
2018-08-16T20:03:07.790Z,70.80
2018-08-16T20:05:36.285Z,70.00
2018-08-16T20:08:05.075Z,69.80
2018-08-16T20:10:33.519Z,70.40
2018-08-16T20:13:02.042Z,71.10
2018-08-16T20:15:30.687Z,71.50
2018-08-16T20:17:59.263Z,72.20
2018-08-16T20:20:28.285Z,72.50
2018-08-16T20:22:56.725Z,71.50
2018-08-16T20:25:25.277Z,70.70
2018-08-16T20:27:53.751Z,70.50
2018-08-16T20:30:22.256Z,70.40
2018-08-16T20:32:51.978Z,70.30
2018-08-16T20:35:21.210Z,70.60
2018-08-16T20:40:27.074Z,70.30
2018-08-16T20:42:55.887Z,70.90
2018-08-16T20:45:24.869Z,71.00
2018-08-16T20:50:26.134Z,70.60
2018-08-16T21:06:00.125Z,71.10
2018-08-16T21:08:28.611Z,73.20
2018-08-16T21:11:03.514Z,72.10
2018-08-16T21:13:33.237Z,71.60
2018-08-16T21:16:02.065Z,71.20
2018-08-16T21:18:30.538Z,71.50
2018-08-16T21:21:00.325Z,71.10
2018-08-16T21:23:30.426Z,70.90
2018-08-16T21:25:58.927Z,71.30
2018-08-16T21:28:27.435Z,71.50
2018-08-16T21:30:56.202Z,71.70
2018-08-16T21:33:24.962Z,71.20
2018-08-16T21:35:53.477Z,71.00
2018-08-16T21:38:22.537Z,71.40
2018-08-16T21:40:51.041Z,71.40
2018-08-16T21:43:20.120Z,71.80
2018-08-16T21:45:48.776Z,71.80
2018-08-16T21:48:17.221Z,71.80
2018-08-16T21:50:45.679Z,72.60
2018-08-16T21:53:14.179Z,72.70
2018-08-16T21:55:42.750Z,73.20
2018-08-16T21:58:11.299Z,73.30
2018-08-16T22:00:48.035Z,73.30
2018-08-16T22:03:18.806Z,73.40
2018-08-16T22:05:58.217Z,73.70
2018-08-16T22:08:29.215Z,73.80
2018-08-16T22:10:58.204Z,74.10
2018-08-16T22:13:26.682Z,74.20
2018-08-16T22:15:55.157Z,74.20
2018-08-16T22:18:23.606Z,74.60
2018-08-16T22:21:04.801Z,74.90
2018-08-16T22:23:33.253Z,74.70
2018-08-16T22:26:01.793Z,75.00
2018-08-16T22:28:34.604Z,75.20
2018-08-16T22:31:03.635Z,75.60
2018-08-16T22:33:32.211Z,75.70
2018-08-16T22:36:00.705Z,76.70
2018-08-16T22:38:29.295Z,76.30
2018-08-16T22:40:57.846Z,76.30
2018-08-16T22:43:26.385Z,76.00
2018-08-16T22:45:54.849Z,76.40
2018-08-16T22:48:23.302Z,76.90
2018-08-16T22:50:52.779Z,77.40
2018-08-16T22:53:21.225Z,76.70
2018-08-16T22:55:49.685Z,76.90
2018-08-16T22:58:18.244Z,77.20
2018-08-16T23:00:46.757Z,77.60
2018-08-16T23:03:20.057Z,77.90
2018-08-16T23:05:53.548Z,78.20
2018-08-16T23:08:21.973Z,78.10
2018-08-16T23:10:50.445Z,78.50
2018-08-16T23:13:18.903Z,78.70
2018-08-16T23:15:48.080Z,78.40
2018-08-16T23:18:16.548Z,78.90
2018-08-16T23:20:46.053Z,79.10
2018-08-16T23:23:14.572Z,79.40
2018-08-16T23:25:43.013Z,79.40
2018-08-16T23:28:11.502Z,80.00
2018-08-16T23:30:40.033Z,79.40
2018-08-16T23:33:08.669Z,79.30
2018-08-16T23:35:37.144Z,79.40
2018-08-16T23:38:05.980Z,79.40
2018-08-16T23:40:34.423Z,79.70
2018-08-16T23:43:02.888Z,80.00
2018-08-16T23:45:31.370Z,80.20
2018-08-16T23:48:11.113Z,80.20
2018-08-16T23:50:40.025Z,81.20
2018-08-16T23:53:08.472Z,80.20
2018-08-16T23:55:37.036Z,80.40
2018-08-16T23:58:06.128Z,80.40
